Time;durP1;ratioP1;P1;durP2;ratioP2;P2;SDS_P1;SDS_P2;PMS_P1;PMS_P2;Temp;Humidity;BMP_temperature;BMP_pressure;BME280_temperature;BME280_humidity;BME280_pressure;Samples;Min_cycle;Max_cycle;Signal;HPM_P1;HPM_P2
2024/01/19 00:00:13;;;;;;;0.40;0.30;;;;;;;11.96;100.00;94346.28;5135699;27;20438;-60
2024/01/19 00:02:42;;;;;;;0.37;0.30;;;;;;;11.88;100.00;94354.97;5121955;27;20491;-61
2024/01/19 00:05:11;;;;;;;1.10;0.90;;;;;;;11.72;100.00;94319.22;5134853;27;20505;-60
2024/01/19 00:07:41;;;;;;;0.30;0.30;;;;;;;11.81;100.00;94357.25;5135740;27;20434;-60
2024/01/19 00:10:10;;;;;;;0.50;0.30;;;;;;;11.75;100.00;94359.22;5122940;27;20507;-60
2024/01/19 00:12:39;;;;;;;4.60;0.60;;;;;;;11.64;100.00;94370.34;5134667;27;20806;-60
2024/01/19 00:15:09;;;;;;;0.67;0.60;;;;;;;11.34;100.00;94372.53;5122144;27;20446;-60
2024/01/19 00:17:37;;;;;;;0.40;0.40;;;;;;;11.61;100.00;94378.91;5133375;27;20506;-60
2024/01/19 00:20:10;;;;;;;0.80;0.70;;;;;;;11.82;100.00;94385.34;5135209;27;20843;-60
2024/01/19 00:22:40;;;;;;;2.93;0.77;;;;;;;11.61;100.00;94386.88;5135246;27;20473;-60
2024/01/19 00:25:09;;;;;;;0.40;0.30;;;;;;;11.47;100.00;94385.00;5135140;27;20438;-60
2024/01/19 00:27:37;;;;;;;0.50;0.50;;;;;;;11.40;100.00;94375.88;5135284;27;20446;-60
2024/01/19 00:30:07;;;;;;;2.60;1.50;;;;;;;11.46;100.00;94385.28;5135324;27;20980;-59
2024/01/19 00:32:35;;;;;;;0.40;0.40;;;;;;;11.16;100.00;94333.66;5134882;27;20474;-60
2024/01/19 00:35:04;;;;;;;2.97;2.87;;;;;;;11.54;100.00;94386.47;5135283;27;20430;-59
2024/01/19 00:37:33;;;;;;;0.70;0.40;;;;;;;11.13;100.00;94379.31;5135357;27;20438;-60
2024/01/19 00:40:10;;;;;;;0.90;0.70;;;;;;;11.25;100.00;94397.41;5134959;27;20453;-60
2024/01/19 00:42:41;;;;;;;0.83;0.83;;;;;;;10.72;100.00;94322.88;5134888;27;20522;-60
2024/01/19 00:45:10;;;;;;;0.40;0.30;;;;;;;11.18;100.00;94381.88;5134124;27;20430;-60
2024/01/19 00:47:39;;;;;;;0.63;0.57;;;;;;;11.17;100.00;94348.50;5121735;27;20439;-59
2024/01/19 00:50:09;;;;;;;1.70;0.67;;;;;;;10.92;100.00;94337.59;5108106;27;20521;-59
2024/01/19 00:52:38;;;;;;;1.53;0.50;;;;;;;11.28;100.00;94378.25;5133153;27;20572;-59
2024/01/19 00:55:10;;;;;;;0.63;0.63;;;;;;;11.44;100.00;94393.56;5135151;27;20516;-59
2024/01/19 00:57:39;;;;;;;0.43;0.40;;;;;;;11.46;100.00;94391.38;5134859;27;20430;-59
2024/01/19 01:00:09;;;;;;;0.30;0.20;;;;;;;11.47;100.00;94390.31;5135230;27;20867;-59
2024/01/19 01:02:37;;;;;;;0.40;0.30;;;;;;;11.54;100.00;94395.22;5133971;27;20450;-59
2024/01/19 01:05:06;;;;;;;0.40;0.30;;;;;;;11.58;100.00;94390.91;5124473;27;20535;-59
2024/01/19 01:07:35;;;;;;;0.30;0.20;;;;;;;11.66;100.00;94382.25;5131609;27;20474;-59
2024/01/19 01:10:04;;;;;;;0.60;0.30;;;;;;;11.62;100.00;94367.19;5134386;27;20446;-59
2024/01/19 01:12:34;;;;;;;1.00;1.00;;;;;;;11.61;100.00;94385.00;5133865;27;20559;-59
2024/01/19 01:15:04;;;;;;;0.40;0.30;;;;;;;11.67;100.00;94391.75;5133990;27;20468;-59
2024/01/19 01:17:32;;;;;;;0.60;0.50;;;;;;;11.66;100.00;94389.41;5133704;27;20646;-59
2024/01/19 01:20:01;;;;;;;0.30;0.30;;;;;;;11.52;100.00;94392.06;5134465;27;20518;-59
2024/01/19 01:22:31;;;;;;;1.10;1.00;;;;;;;11.48;100.00;94399.06;5134513;27;20427;-59
2024/01/19 01:24:59;;;;;;;0.30;0.30;;;;;;;11.53;100.00;94383.03;5134109;27;20434;-59
2024/01/19 01:27:28;;;;;;;0.50;0.50;;;;;;;11.48;100.00;94383.16;5107148;27;20607;-59
2024/01/19 01:29:58;;;;;;;0.40;0.30;;;;;;;11.47;100.00;94387.66;5133954;27;20434;-59
2024/01/19 01:32:27;;;;;;;0.40;0.30;;;;;;;10.79;100.00;94315.31;5134186;27;20856;-59
2024/01/19 01:34:55;;;;;;;0.50;0.40;;;;;;;10.98;100.00;94362.94;5134337;27;20438;-59
2024/01/19 01:37:24;;;;;;;0.73;0.50;;;;;;;10.39;100.00;94353.13;5133483;27;20430;-60
2024/01/19 01:39:52;;;;;;;0.83;0.83;;;;;;;10.61;100.00;94406.25;5133886;27;20434;-59
2024/01/19 01:42:21;;;;;;;0.50;0.43;;;;;;;10.89;100.00;94393.84;5133726;27;20540;-60
2024/01/19 01:44:50;;;;;;;1.60;0.40;;;;;;;11.01;100.00;94402.88;5133851;27;20431;-59
2024/01/19 01:47:20;;;;;;;0.57;0.30;;;;;;;11.12;100.00;94404.28;5134258;27;20782;-60
2024/01/19 01:49:49;;;;;;;0.57;0.40;;;;;;;11.08;100.00;94405.94;5133667;27;20433;-59
2024/01/19 01:52:18;;;;;;;0.30;0.20;;;;;;;11.10;100.00;94403.78;5133363;27;21004;-59
2024/01/19 01:54:47;;;;;;;5.90;0.60;;;;;;;11.18;100.00;94400.44;5132592;27;20439;-59
2024/01/19 01:57:19;;;;;;;0.47;0.20;;;;;;;11.23;100.00;94405.63;5133209;27;20977;-60
2024/01/19 01:59:48;;;;;;;0.80;0.80;;;;;;;11.28;100.00;94400.25;5132974;27;20438;-59
2024/01/19 02:02:17;;;;;;;1.53;0.30;;;;;;;11.29;100.00;94399.16;5133983;27;20491;-59
2024/01/19 02:04:47;;;;;;;0.50;0.40;;;;;;;11.04;100.00;94407.59;5106489;27;20529;-60
2024/01/19 02:07:16;;;;;;;0.40;0.40;;;;;;;10.52;100.00;94370.94;5132582;27;20503;-58
2024/01/19 02:09:46;;;;;;;0.40;0.30;;;;;;;10.91;100.00;94403.06;5132836;27;20426;-60
2024/01/19 02:12:15;;;;;;;0.50;0.30;;;;;;;11.06;100.00;94413.41;5132675;27;20466;-59
2024/01/19 02:14:43;;;;;;;0.70;0.37;;;;;;;10.82;100.00;94420.75;5133123;27;20434;-59
2024/01/19 02:17:12;;;;;;;0.50;0.50;;;;;;;10.63;100.00;94420.78;5133065;27;20458;-59
2024/01/19 02:19:40;;;;;;;0.40;0.30;;;;;;;10.66;100.00;94414.91;5133169;27;20826;-59
2024/01/19 02:22:11;;;;;;;0.40;0.40;;;;;;;10.63;100.00;94423.44;5132432;27;20491;-60
2024/01/19 02:24:41;;;;;;;0.60;0.40;;;;;;;10.75;100.00;94429.06;5132741;27;20439;-59
2024/01/19 02:27:10;;;;;;;0.40;0.40;;;;;;;10.53;100.00;94438.72;5132216;27;20431;-59
2024/01/19 02:29:39;;;;;;;0.30;0.20;;;;;;;10.32;100.00;94411.00;5132508;27;20815;-59
2024/01/19 02:32:07;;;;;;;1.00;0.97;;;;;;;10.39;100.00;94433.38;5132385;27;20474;-59
2024/01/19 02:34:36;;;;;;;0.50;0.30;;;;;;;10.50;100.00;94429.47;5132544;27;20796;-59
2024/01/19 02:37:05;;;;;;;0.30;0.20;;;;;;;10.68;100.00;94427.88;5132663;27;20438;-59
2024/01/19 02:39:33;;;;;;;0.40;0.30;;;;;;;10.61;100.00;94432.75;5132279;27;20438;-57
2024/01/19 02:42:03;;;;;;;0.50;0.37;;;;;;;10.65;100.00;94429.22;5132135;27;20446;-59
2024/01/19 02:44:32;;;;;;;1.23;1.07;;;;;;;10.59;100.00;94414.50;5132060;27;20451;-58
2024/01/19 02:47:01;;;;;;;0.80;0.60;;;;;;;10.48;100.00;94431.63;5132009;27;20438;-59
2024/01/19 02:49:29;;;;;;;0.40;0.30;;;;;;;10.54;100.00;94435.00;5132328;27;20441;-59
2024/01/19 02:51:58;;;;;;;0.97;0.97;;;;;;;10.67;100.00;94442.22;5132381;27;20489;-59
2024/01/19 02:54:27;;;;;;;0.60;0.43;;;;;;;10.67;100.00;94437.69;5131571;27;20888;-59
2024/01/19 02:56:55;;;;;;;0.30;0.20;;;;;;;10.71;100.00;94443.97;5132223;27;20442;-59
2024/01/19 02:59:26;;;;;;;0.40;0.30;;;;;;;9.67;100.00;94278.56;5132833;27;20795;-59
2024/01/19 03:01:54;;;;;;;0.30;0.20;;;;;;;10.73;100.00;94443.69;5132800;27;20491;-59
2024/01/19 03:04:23;;;;;;;0.40;0.20;;;;;;;10.73;100.00;94454.28;5131603;27;20442;-59
2024/01/19 03:06:52;;;;;;;0.40;0.30;;;;;;;10.48;100.00;94447.53;5132096;27;20461;-59
2024/01/19 03:09:20;;;;;;;0.40;0.30;;;;;;;10.54;100.00;94448.25;5131637;27;20487;-59
2024/01/19 03:11:49;;;;;;;0.43;0.40;;;;;;;10.47;100.00;94455.78;5131726;27;20461;-59
2024/01/19 03:14:18;;;;;;;1.57;0.30;;;;;;;10.48;100.00;94449.38;5132391;28;20434;-59
2024/01/19 03:16:48;;;;;;;0.50;0.40;;;;;;;10.60;100.00;94457.69;5137560;27;20812;-59
2024/01/19 03:19:16;;;;;;;0.40;0.30;;;;;;;10.71;100.00;94461.75;5138463;27;20426;-59
2024/01/19 03:21:45;;;;;;;0.70;0.70;;;;;;;10.71;100.00;94467.03;5139203;27;20449;-59
2024/01/19 03:24:14;;;;;;;0.57;0.37;;;;;;;10.06;100.00;94387.53;5112023;27;20445;-60
2024/01/19 03:26:42;;;;;;;0.53;0.30;;;;;;;10.71;100.00;94475.00;5138523;27;20818;-59
2024/01/19 03:29:11;;;;;;;0.70;0.70;;;;;;;10.66;100.00;94473.22;5138820;27;20476;-59
2024/01/19 03:31:40;;;;;;;0.50;0.40;;;;;;;10.23;100.00;94407.41;5138748;27;20434;-59
2024/01/19 03:34:10;;;;;;;0.50;0.50;;;;;;;10.63;100.00;94478.28;5138569;27;20834;-58
2024/01/19 03:36:38;;;;;;;1.13;0.40;;;;;;;10.06;100.00;94442.31;5138934;27;20466;-57
2024/01/19 03:39:07;;;;;;;1.17;0.40;;;;;;;10.09;100.00;94484.88;5138954;27;20442;-58
2024/01/19 03:41:36;;;;;;;3.63;0.87;;;;;;;10.20;100.00;94480.25;5138777;27;20448;-58
2024/01/19 03:44:04;;;;;;;1.60;1.50;;;;;;;9.63;100.00;94497.16;5139176;27;20985;-59
2024/01/19 03:46:33;;;;;;;1.40;1.30;;;;;;;9.73;100.00;94477.69;5138517;27;20442;-59
2024/01/19 03:49:02;;;;;;;1.57;0.60;;;;;;;9.98;100.00;94486.09;5139007;27;20434;-59
2024/01/19 03:51:32;;;;;;;1.20;1.10;;;;;;;9.60;100.00;94495.06;5138027;27;20437;-59
2024/01/19 03:54:01;;;;;;;0.43;0.40;;;;;;;9.26;100.00;94444.16;5137954;27;20885;-58
2024/01/19 03:56:29;;;;;;;0.50;0.50;;;;;;;9.84;100.00;94476.50;5138044;27;20470;-58
2024/01/19 03:58:58;;;;;;;1.50;1.50;;;;;;;9.48;100.00;94469.03;5138723;27;20438;-59
2024/01/19 04:01:26;;;;;;;0.40;0.40;;;;;;;9.63;100.00;94467.25;5138631;27;20463;-58
2024/01/19 04:03:58;;;;;;;0.60;0.60;;;;;;;9.64;100.00;94429.16;5138357;27;20868;-57
2024/01/19 04:06:26;;;;;;;1.00;0.90;;;;;;;9.96;100.00;94495.41;5138258;27;20464;-58
2024/01/19 04:08:57;;;;;;;0.40;0.33;;;;;;;9.92;100.00;94457.34;5125132;27;20489;-58
2024/01/19 04:11:25;;;;;;;0.80;0.80;;;;;;;9.97;100.00;94439.53;5138363;27;20498;-59
2024/01/19 04:13:54;;;;;;;0.70;0.70;;;;;;;9.98;100.00;94511.78;5137989;27;20512;-58
2024/01/19 04:16:23;;;;;;;0.47;0.47;;;;;;;10.00;100.00;94507.78;5138699;27;20430;-59
2024/01/19 04:18:51;;;;;;;2.53;0.80;;;;;;;10.24;100.00;94502.47;5137856;27;20480;-58
2024/01/19 04:21:20;;;;;;;1.07;0.90;;;;;;;10.03;100.00;94509.06;5137899;27;20494;-58
2024/01/19 04:23:49;;;;;;;0.40;0.30;;;;;;;10.20;100.00;94520.78;5138056;27;20876;-59
2024/01/19 04:26:19;;;;;;;1.53;0.60;;;;;;;10.25;100.00;94521.78;5138393;27;20831;-58
2024/01/19 04:28:48;;;;;;;0.40;0.30;;;;;;;10.35;100.00;94526.97;5133780;27;20441;-58
2024/01/19 04:31:17;;;;;;;0.40;0.30;;;;;;;10.32;100.00;94533.63;5135188;27;20449;-58
2024/01/19 04:33:45;;;;;;;0.73;0.63;;;;;;;10.31;100.00;94508.19;5134806;27;20994;-59
2024/01/19 04:36:14;;;;;;;1.37;1.23;;;;;;;10.32;100.00;94532.81;5134982;27;20435;-59
2024/01/19 04:38:42;;;;;;;0.93;0.87;;;;;;;10.25;100.00;94532.38;5135088;27;20438;-58
2024/01/19 04:41:11;;;;;;;0.93;0.90;;;;;;;10.29;100.00;94520.16;5134960;27;20430;-59
2024/01/19 04:43:41;;;;;;;0.60;0.53;;;;;;;10.15;100.00;94539.38;5107673;27;20860;-59
2024/01/19 04:46:10;;;;;;;0.93;0.70;;;;;;;10.28;100.00;94522.00;5134046;27;20437;-58
2024/01/19 04:48:38;;;;;;;5.50;1.00;;;;;;;10.16;100.00;94529.59;5135056;27;20446;-59
2024/01/19 04:51:07;;;;;;;2.90;1.40;;;;;;;10.15;100.00;94534.09;5134292;27;20439;-58
2024/01/19 04:53:36;;;;;;;3.13;0.97;;;;;;;10.09;100.00;94545.78;5134666;27;20477;-60
2024/01/19 04:56:06;;;;;;;3.43;0.70;;;;;;;10.04;100.00;94519.38;5134591;27;20440;-59
2024/01/19 04:58:34;;;;;;;1.30;1.10;;;;;;;10.27;100.00;94554.06;5135227;27;20975;-59
2024/01/19 05:01:05;;;;;;;4.63;3.10;;;;;;;10.25;100.00;94553.56;5134021;27;20504;-59
2024/01/19 05:03:34;;;;;;;2.40;2.30;;;;;;;9.72;100.00;94519.25;5134288;27;20431;-59
2024/01/19 05:06:02;;;;;;;0.90;0.50;;;;;;;9.84;100.00;94564.63;5134476;27;20926;-58
2024/01/19 05:08:31;;;;;;;5.83;0.93;;;;;;;10.01;100.00;94569.47;5134807;27;20434;-59
2024/01/19 05:11:00;;;;;;;2.43;2.27;;;;;;;9.64;100.00;94493.41;5134168;27;20515;-58
2024/01/19 05:13:29;;;;;;;0.60;0.60;;;;;;;10.01;100.00;94578.19;5134570;27;20472;-58
2024/01/19 05:15:58;;;;;;;0.80;0.77;;;;;;;10.06;100.00;94572.84;5134070;27;20430;-59
2024/01/19 05:18:28;;;;;;;1.47;1.07;;;;;;;10.05;100.00;94573.91;5134039;27;20530;-58
2024/01/19 05:20:56;;;;;;;2.13;2.03;;;;;;;9.98;100.00;94559.44;5133394;27;20527;-59
2024/01/19 05:23:25;;;;;;;2.23;1.37;;;;;;;10.01;100.00;94575.56;5133958;27;20921;-58
2024/01/19 05:25:54;;;;;;;1.57;1.33;;;;;;;10.01;100.00;94578.19;5106926;27;20470;-59
2024/01/19 05:28:22;;;;;;;2.27;1.00;;;;;;;9.63;100.00;94481.28;5133912;27;20459;-58
2024/01/19 05:30:51;;;;;;;1.40;1.30;;;;;;;9.67;100.00;94521.16;5133766;27;20457;-58
2024/01/19 05:33:19;;;;;;;3.70;2.00;;;;;;;9.73;100.00;94581.69;5133611;27;20431;-58
2024/01/19 05:35:50;;;;;;;1.87;1.20;;;;;;;9.54;100.00;94528.72;5133800;27;20434;-60
2024/01/19 05:38:18;;;;;;;2.60;2.40;;;;;;;9.88;100.00;94572.78;5133167;27;20935;-58
2024/01/19 05:40:47;;;;;;;2.30;2.10;;;;;;;9.75;100.00;94576.91;5133890;27;20804;-58
2024/01/19 05:43:15;;;;;;;7.60;1.27;;;;;;;9.81;100.00;94564.41;5133538;27;20501;-58
2024/01/19 05:45:44;;;;;;;1.57;1.47;;;;;;;9.39;100.00;94489.19;5133255;27;20477;-58
2024/01/19 05:48:13;;;;;;;1.33;1.23;;;;;;;9.94;100.00;94569.78;5133505;27;20438;-59
2024/01/19 05:50:42;;;;;;;2.00;1.80;;;;;;;9.46;100.00;94581.44;5133642;27;20442;-60
2024/01/19 05:53:12;;;;;;;1.40;1.40;;;;;;;9.51;100.00;94562.88;5133329;27;20488;-58
2024/01/19 05:55:41;;;;;;;3.50;1.90;;;;;;;9.22;100.00;94519.78;5133604;27;20468;-58
2024/01/19 05:58:09;;;;;;;2.60;2.27;;;;;;;9.45;100.00;94583.31;5132979;27;20491;-58
2024/01/19 06:00:38;;;;;;;4.20;2.37;;;;;;;9.26;100.00;94553.31;5133222;27;20820;-58
2024/01/19 06:03:06;;;;;;;1.70;1.60;;;;;;;9.48;100.00;94566.09;5132838;27;20438;-58
2024/01/19 06:05:37;;;;;;;3.40;1.80;;;;;;;9.58;100.00;94571.28;5132527;27;20442;-59
2024/01/19 06:08:06;;;;;;;4.63;2.80;;;;;;;9.29;100.00;94536.91;5132898;27;20845;-57
2024/01/19 06:10:36;;;;;;;2.13;2.03;;;;;;;9.66;100.00;94575.16;5124354;27;20871;-58
2024/01/19 06:13:05;;;;;;;2.40;2.30;;;;;;;9.66;100.00;94581.25;5132541;27;20442;-58
2024/01/19 06:15:33;;;;;;;3.33;1.27;;;;;;;9.73;100.00;94576.41;5132354;27;20474;-59
2024/01/19 06:18:02;;;;;;;1.63;1.53;;;;;;;9.36;100.00;94574.38;5132927;27;20440;-60
2024/01/19 06:20:32;;;;;;;1.50;1.13;;;;;;;9.52;100.00;94581.09;5132861;27;20446;-60
2024/01/19 06:23:00;;;;;;;0.83;0.83;;;;;;;9.77;100.00;94590.63;5133031;27;20442;-58
2024/01/19 06:25:29;;;;;;;3.20;3.00;;;;;;;9.67;100.00;94582.00;5132139;27;20450;-59
2024/01/19 06:27:59;;;;;;;6.63;1.53;;;;;;;9.71;100.00;94594.41;5132851;27;20514;-59
2024/01/19 06:30:27;;;;;;;2.10;2.00;;;;;;;9.88;100.00;94576.22;5132894;27;20441;-59
2024/01/19 06:32:56;;;;;;;1.17;1.10;;;;;;;9.91;100.00;94598.69;5132895;27;20438;-60
2024/01/19 06:35:25;;;;;;;3.50;1.37;;;;;;;10.09;100.00;94585.47;5125625;27;20479;-59
2024/01/19 06:37:54;;;;;;;4.27;1.70;;;;;;;10.69;100.00;94599.03;5125617;27;20931;-60
2024/01/19 06:40:22;;;;;;;9.97;1.27;;;;;;;11.05;100.00;94570.16;5106640;27;20465;-58
2024/01/19 06:42:51;;;;;;;2.67;2.03;;;;;;;11.55;100.00;94605.66;5131856;27;20430;-58
2024/01/19 06:45:21;;;;;;;4.37;4.17;;;;;;;11.84;100.00;94599.03;5132346;27;20443;-60
2024/01/19 06:47:50;;;;;;;2.90;1.60;;;;;;;11.97;100.00;94549.66;5132156;27;20512;-59
2024/01/19 06:50:19;;;;;;;3.43;3.13;;;;;;;12.18;100.00;94593.34;5132429;27;20442;-58
2024/01/19 06:52:48;;;;;;;3.80;3.50;;;;;;;12.25;100.00;94604.34;5131703;27;20477;-57
2024/01/19 06:55:17;;;;;;;4.63;2.90;;;;;;;12.80;100.00;94605.03;5131842;27;20482;-58
2024/01/19 06:57:45;;;;;;;2.93;2.83;;;;;;;13.29;100.00;94585.56;5131764;27;20430;-60
2024/01/19 07:00:17;;;;;;;3.07;2.00;;;;;;;13.97;100.00;94606.44;5132124;27;20439;-60
2024/01/19 07:02:47;;;;;;;3.93;3.73;;;;;;;14.09;100.00;94573.91;5131258;27;20431;-61
2024/01/19 07:05:16;;;;;;;3.23;2.70;;;;;;;14.12;97.15;94600.72;5132779;27;20489;-59
2024/01/19 07:07:44;;;;;;;4.83;4.53;;;;;;;14.65;95.61;94597.13;5132877;27;20434;-61
2024/01/19 07:10:13;;;;;;;3.87;2.93;;;;;;;14.26;90.88;94448.69;5132626;27;20439;-60
2024/01/19 07:12:42;;;;;;;2.23;2.13;;;;;;;15.63;88.82;94593.53;5131614;27;20447;-61
2024/01/19 07:15:11;;;;;;;5.70;2.10;;;;;;;15.90;84.87;94587.00;5131293;27;20465;-60
2024/01/19 07:17:39;;;;;;;2.97;2.77;;;;;;;15.67;80.47;94513.50;5131927;28;20442;-60
2024/01/19 07:20:11;;;;;;;10.83;3.40;;;;;;;15.88;81.80;94599.91;5131684;27;20477;-60
2024/01/19 07:22:39;;;;;;;3.63;2.80;;;;;;;15.61;82.39;94598.38;5106039;28;20442;-65
2024/01/19 07:25:09;;;;;;;2.50;2.30;;;;;;;14.86;82.93;94598.09;5131993;27;20438;-63
2024/01/19 07:27:38;;;;;;;6.63;1.90;;;;;;;14.23;85.87;94537.25;5131867;28;20438;-64
2024/01/19 07:30:08;;;;;;;2.30;2.20;;;;;;;14.18;88.18;94564.84;5131849;28;20487;-63
2024/01/19 07:32:36;;;;;;;2.00;1.90;;;;;;;13.91;89.03;94555.19;5131837;28;20458;-62
2024/01/19 07:35:26;;;;;;;6.23;3.03;;;;;;;13.58;95.19;94588.59;5131610;28;20470;-60
2024/01/19 07:37:55;;;;;;;4.03;1.07;;;;;;;14.04;93.94;94619.34;5131981;28;20471;-60
2024/01/19 07:40:24;;;;;;;8.47;2.57;;;;;;;12.74;94.32;94447.50;5131635;27;20435;-60
2024/01/19 07:42:53;;;;;;;4.40;1.57;;;;;;;13.14;94.53;94506.91;5131555;28;20545;-60
2024/01/19 07:45:21;;;;;;;10.63;2.10;;;;;;;13.74;94.68;94608.38;5118409;27;20431;-60
2024/01/19 07:47:50;;;;;;;1.37;1.30;;;;;;;13.61;96.51;94590.59;5131820;27;20499;-59
2024/01/19 07:50:19;;;;;;;11.23;2.20;;;;;;;14.08;99.39;94621.09;5132042;27;20444;-61
2024/01/19 07:52:49;;;;;;;3.67;3.57;;;;;;;14.26;95.21;94620.06;5130796;27;20462;-60
2024/01/19 07:55:18;;;;;;;2.80;1.20;;;;;;;14.46;91.33;94624.84;5131806;27;20660;-61
2024/01/19 07:57:46;;;;;;;2.13;1.93;;;;;;;14.10;91.10;94588.78;5131584;28;20538;-59
2024/01/19 08:00:16;;;;;;;4.93;2.30;;;;;;;14.40;90.59;94623.41;5131574;28;20442;-61
2024/01/19 08:02:46;;;;;;;3.83;3.63;;;;;;;13.87;94.13;94622.69;5133038;27;20491;-61
2024/01/19 08:05:14;;;;;;;3.27;3.07;;;;;;;13.84;95.88;94633.97;5136067;27;20480;-60
2024/01/19 08:07:43;;;;;;;8.63;3.00;;;;;;;13.42;99.99;94624.66;5135081;27;20876;-60
2024/01/19 08:10:13;;;;;;;4.60;4.40;;;;;;;13.34;100.00;94638.66;5135958;27;20439;-59
2024/01/19 08:12:42;;;;;;;3.80;2.17;;;;;;;14.30;97.83;94636.22;5135827;27;20434;-61
2024/01/19 08:15:11;;;;;;;6.30;3.67;;;;;;;15.21;92.29;94629.81;5134727;27;20497;-60
2024/01/19 08:17:40;;;;;;;4.43;4.13;;;;;;;16.21;87.31;94624.94;5135542;27;20938;-58
2024/01/19 08:20:10;;;;;;;3.50;3.00;;;;;;;17.25;82.27;94615.22;5135353;27;20446;-58
2024/01/19 08:22:39;;;;;;;5.03;3.20;;;;;;;17.97;75.88;94620.06;5108723;27;20502;-59
2024/01/19 08:25:10;;;;;;;6.03;1.93;;;;;;;18.89;69.78;94623.81;5135418;27;20438;-60
2024/01/19 08:27:44;;;;;;;2.03;1.80;;;;;;;19.36;67.71;94621.34;5135461;27;20442;-61
2024/01/19 08:30:13;;;;;;;3.10;2.37;;;;;;;19.53;65.91;94620.34;5135101;27;20503;-62
2024/01/19 08:32:42;;;;;;;0.73;0.73;;;;;;;20.16;61.58;94605.09;5134686;27;20434;-62
2024/01/19 08:35:10;;;;;;;0.60;0.57;;;;;;;20.62;57.92;94614.31;5134220;27;20478;-62
2024/01/19 08:37:40;;;;;;;0.47;0.47;;;;;;;20.79;57.03;94611.25;5134442;27;20439;-63
2024/01/19 08:40:10;;;;;;;4.63;0.40;;;;;;;20.78;57.39;94561.22;5122768;27;20494;-66
2024/01/19 08:42:39;;;;;;;1.73;1.63;;;;;;;21.27;56.92;94569.63;5134791;27;20449;-65
2024/01/19 08:45:10;;;;;;;2.10;1.73;;;;;;;22.25;55.53;94602.28;5132515;27;20449;-65
2024/01/19 08:47:38;;;;;;;0.83;0.60;;;;;;;21.82;53.38;94592.63;5135166;27;20445;-65
2024/01/19 08:50:08;;;;;;;4.50;0.90;;;;;;;22.27;52.93;94603.50;5134407;27;20445;-63
2024/01/19 08:52:36;;;;;;;1.83;1.00;;;;;;;23.12;50.46;94615.66;5134617;27;20867;-62
2024/01/19 08:55:05;;;;;;;0.83;0.80;;;;;;;23.43;49.28;94618.03;5133951;27;20446;-61
2024/01/19 08:57:34;;;;;;;1.83;1.33;;;;;;;22.84;49.37;94512.56;5134742;27;20434;-60
2024/01/19 09:00:04;;;;;;;2.10;1.53;;;;;;;24.03;47.83;94616.81;5134272;27;20514;-60
2024/01/19 09:02:35;;;;;;;1.10;0.90;;;;;;;24.18;46.64;94569.03;5133183;27;20545;-60
2024/01/19 09:05:13;;;;;;;2.17;2.07;;;;;;;24.48;45.31;94601.41;5109144;27;20487;-60
2024/01/19 09:07:42;;;;;;;1.07;1.07;;;;;;;24.33;45.70;94576.13;5124523;27;20838;-59
2024/01/19 09:10:12;;;;;;;2.37;1.90;;;;;;;23.72;45.91;94606.44;5134588;27;20470;-59
2024/01/19 09:12:40;;;;;;;1.27;1.10;;;;;;;24.42;46.28;94600.19;5132600;27;20526;-59
2024/01/19 09:15:09;;;;;;;0.90;0.90;;;;;;;21.94;49.55;94563.59;5133816;27;20934;-59
2024/01/19 09:17:39;;;;;;;1.33;0.70;;;;;;;21.68;52.64;94605.88;5134186;27;20439;-58
2024/01/19 09:20:09;;;;;;;2.77;1.10;;;;;;;23.06;51.43;94611.72;5120904;27;20436;-58
2024/01/19 09:22:38;;;;;;;0.50;0.40;;;;;;;23.84;48.94;94605.38;5111142;27;20430;-59
2024/01/19 09:25:07;;;;;;;3.33;1.90;;;;;;;24.25;47.56;94601.59;5133875;27;20439;-59
2024/01/19 09:27:36;;;;;;;2.40;0.50;;;;;;;24.86;46.91;94592.84;5133935;27;20462;-59
2024/01/19 09:30:05;;;;;;;1.13;0.93;;;;;;;24.61;46.79;94595.34;5133254;27;20445;-59
2024/01/19 09:32:34;;;;;;;2.40;1.70;;;;;;;24.87;46.07;94586.25;5132898;27;20430;-59
2024/01/19 09:35:05;;;;;;;1.97;0.83;;;;;;;25.04;44.92;94582.09;5129816;27;20449;-59
2024/01/19 09:37:33;;;;;;;3.70;1.67;;;;;;;24.77;44.59;94584.22;5127048;27;20482;-59
2024/01/19 09:40:02;;;;;;;0.70;0.50;;;;;;;24.83;45.76;94587.38;5128842;27;20499;-59
2024/01/19 09:42:34;;;;;;;1.43;1.43;;;;;;;24.76;44.41;94582.66;5132919;27;20452;-59
2024/01/19 09:45:04;;;;;;;0.80;0.80;;;;;;;24.48;43.81;94583.22;5131917;27;20453;-58
2024/01/19 09:47:48;;;;;;;2.50;0.67;;;;;;;24.76;44.50;94579.97;5132278;27;20472;-58
2024/01/19 09:50:20;;;;;;;0.90;0.60;;;;;;;24.52;44.12;94584.03;5126998;27;20442;-56
2024/01/19 09:52:56;;;;;;;0.60;0.57;;;;;;;25.71;43.22;94583.22;5133418;27;20478;-58
2024/01/19 09:55:27;;;;;;;1.30;1.20;;;;;;;25.13;42.15;94520.94;5119765;27;20554;-58
2024/01/19 09:57:57;;;;;;;0.83;0.70;;;;;;;25.79;42.47;94575.88;5133625;27;20438;-58
2024/01/19 10:00:27;;;;;;;0.40;0.40;;;;;;;25.62;41.44;94574.69;5133279;27;20430;-58
2024/01/19 10:02:55;;;;;;;2.60;1.10;;;;;;;25.77;40.98;94564.63;5134134;27;20431;-58
2024/01/19 10:05:31;;;;;;;1.37;0.60;;;;;;;25.11;40.96;94558.53;5133695;27;20509;-58
2024/01/19 10:08:00;;;;;;;0.70;0.50;;;;;;;23.65;43.55;94543.34;5127910;27;20926;-57
2024/01/19 10:10:29;;;;;;;0.40;0.40;;;;;;;23.79;44.23;94555.09;5106937;27;20918;-58
2024/01/19 10:12:58;;;;;;;0.40;0.30;;;;;;;23.92;44.47;94553.69;5133436;27;20453;-58
2024/01/19 10:15:26;;;;;;;0.50;0.50;;;;;;;23.43;44.93;94553.13;5132740;27;21139;-60
2024/01/19 10:17:56;;;;;;;0.90;0.60;;;;;;;24.25;43.75;94560.19;5131983;27;20474;-59
2024/01/19 10:20:25;;;;;;;0.50;0.50;;;;;;;24.91;42.44;94540.19;5132779;27;20520;-60
2024/01/19 10:22:55;;;;;;;0.57;0.47;;;;;;;24.42;41.66;94551.44;5133118;27;20434;-60
2024/01/19 10:25:23;;;;;;;0.50;0.50;;;;;;;24.51;42.30;94538.34;5131295;27;20435;-58
2024/01/19 10:27:53;;;;;;;0.60;0.47;;;;;;;23.71;42.50;94457.97;5133161;27;20999;-59
2024/01/19 10:30:23;;;;;;;0.50;0.50;;;;;;;23.57;43.65;94528.97;5132402;27;20825;-57
2024/01/19 10:33:05;;;;;;;0.73;0.33;;;;;;;23.73;43.11;94521.38;5132916;27;20437;-58
2024/01/19 10:35:34;;;;;;;0.60;0.50;;;;;;;24.71;42.08;94480.03;5126679;27;20492;-59
2024/01/19 10:38:10;;;;;;;0.50;0.50;;;;;;;26.07;38.48;94513.50;5126056;27;20470;-56
2024/01/19 10:40:39;;;;;;;2.10;0.50;;;;;;;27.04;39.03;94510.38;5133116;27;20466;-58
2024/01/19 10:43:07;;;;;;;3.00;0.87;;;;;;;26.27;38.92;94501.13;5132755;27;20449;-58
2024/01/19 10:45:37;;;;;;;0.50;0.40;;;;;;;27.04;37.53;94464.13;5132687;27;20795;-59
2024/01/19 10:48:06;;;;;;;1.00;0.40;;;;;;;27.66;36.29;94513.25;5130122;27;20514;-58
2024/01/19 10:50:34;;;;;;;0.80;0.50;;;;;;;27.43;37.29;94469.41;5122104;27;20449;-58
2024/01/19 10:53:14;;;;;;;0.60;0.53;;;;;;;27.35;37.26;94498.56;5131921;27;20552;-59
2024/01/19 10:55:49;;;;;;;0.80;0.80;;;;;;;25.38;37.55;94460.59;5132990;27;20514;-57
2024/01/19 10:58:17;;;;;;;0.40;0.30;;;;;;;25.91;36.93;94509.59;5132225;27;20474;-58
2024/01/19 11:00:46;;;;;;;0.40;0.30;;;;;;;25.91;38.62;94506.88;5132527;27;20927;-57
2024/01/19 11:03:15;;;;;;;0.97;0.67;;;;;;;26.87;36.93;94503.00;5132866;27;20461;-57
2024/01/19 11:05:48;;;;;;;0.37;0.27;;;;;;;26.22;36.18;94477.06;5131987;27;20430;-57
2024/01/19 11:08:18;;;;;;;0.40;0.40;;;;;;;23.92;39.90;94472.47;5132313;27;20507;-57
2024/01/19 11:10:48;;;;;;;0.73;0.73;;;;;;;23.47;41.55;94467.41;5131673;27;20464;-57
2024/01/19 11:13:22;;;;;;;0.50;0.30;;;;;;;23.94;41.24;94443.09;5132394;27;20438;-57
2024/01/19 11:15:55;;;;;;;0.40;0.30;;;;;;;23.94;40.94;94461.25;5131356;27;20870;-57
2024/01/19 11:18:27;;;;;;;0.40;0.30;;;;;;;23.05;42.22;94469.59;5132033;28;20518;-58
2024/01/19 11:20:57;;;;;;;0.40;0.23;;;;;;;23.14;42.13;94473.59;5132224;27;20442;-59
2024/01/19 11:23:28;;;;;;;2.50;0.30;;;;;;;23.11;42.17;94470.81;5132758;28;20484;-60
2024/01/19 11:26:08;;;;;;;0.57;0.30;;;;;;;23.41;42.15;94447.25;5132583;28;20954;-60
2024/01/19 11:28:49;;;;;;;0.50;0.50;;;;;;;23.36;41.01;94469.22;5131854;27;20438;-60
2024/01/19 11:31:28;;;;;;;0.40;0.20;;;;;;;23.03;42.07;94475.38;5132322;27;20462;-61
2024/01/19 11:33:57;;;;;;;0.40;0.30;;;;;;;22.89;42.22;94463.63;5105878;28;20434;-62
2024/01/19 11:36:48;;;;;;;0.40;0.30;;;;;;;22.14;41.75;94464.47;5131989;27;21171;-62
2024/01/19 11:39:43;;;;;;;0.90;0.30;;;;;;;21.37;44.57;94453.91;5136435;27;20438;-62